Wetterdaten: Woche 23.09.13 - 29.09.13 (KW39)
Datum Zeit Temp. Aussen +5cm Feuchte Auss Luftdruck Regen Sonnenschein Regendauer UV Solar Windben
23.09.2013 00:00 14,9 C 13,6 C 99 % 1027,2 hPa 0,0 l/m 0,00 h 0,00 h 0,0 UV-I 0 W/m 0,0 km/h (0 Bft)
23.09.2013 01:00 15,1 C 13,9 C 99 % 1027,0 hPa 0,0 l/m 0,00 h 0,00 h 0,0 UV-I 0 W/m 0,0 km/h (0 Bft)
23.09.2013 02:00 15,2 C 13,9 C 99 % 1026,8 hPa 0,0 l/m 0,00 h 0,00 h 0,0 UV-I 0 W/m 0,0 km/h (0 Bft)
23.09.2013 03:00 15,1 C 13,9 C 99 % 1026,5 hPa 0,0 l/m 0,00 h 0,00 h 0,0 UV-I 0 W/m 0,0 km/h (0 Bft)
23.09.2013 04:00 14,9 C 13,9 C 99 % 1026,4 hPa 0,0 l/m 0,00 h 0,00 h 0,0 UV-I 0 W/m 0,0 km/h (0 Bft)
23.09.2013 05:00 14,8 C 13,9 C 98 % 1026,1 hPa 0,0 l/m 0,00 h 0,00 h 0,0 UV-I 0 W/m 0,0 km/h (0 Bft)
23.09.2013 06:00 14,7 C 13,3 C 97 % 1026,1 hPa 0,0 l/m 0,00 h 0,00 h 0,0 UV-I 0 W/m 0,0 km/h (0 Bft)
23.09.2013 07:00 13,6 C 12,0 C 97 % 1026,1 hPa 0,0 l/m 0,00 h 0,00 h 0,0 UV-I 18 W/m 0,0 km/h (0 Bft)
23.09.2013 08:00 14,1 C 13,1 C 98 % 1026,2 hPa 0,0 l/m 0,00 h 0,00 h 0,0 UV-I 44 W/m 0,0 km/h (0 Bft)
23.09.2013 09:00 15,3 C 14,9 C 98 % 1026,3 hPa 0,0 l/m 0,00 h 0,00 h 0,0 UV-I 105 W/m 0,0 km/h (0 Bft)
23.09.2013 10:00 16,5 C 16,4 C 92 % 1026,1 hPa 0,0 l/m 0,00 h 0,00 h 0,5 UV-I 171 W/m 0,0 km/h (0 Bft)
23.09.2013 11:00 17,2 C 17,2 C 88 % 1025,9 hPa 0,0 l/m 0,00 h 0,00 h 0,8 UV-I 189 W/m 0,0 km/h (0 Bft)
23.09.2013 12:00 17,8 C 17,8 C 83 % 1025,8 hPa 0,0 l/m 0,00 h 0,00 h 1,1 UV-I 218 W/m 0,0 km/h (0 Bft)
23.09.2013 13:00 18,5 C 19,0 C 81 % 1025,5 hPa 0,0 l/m 0,03 h 0,00 h 1,6 UV-I 296 W/m 0,0 km/h (0 Bft)
23.09.2013 14:00 19,4 C 19,5 C 77 % 1024,8 hPa 0,0 l/m 0,50 h 0,00 h 2,0 UV-I 380 W/m 0,0 km/h (0 Bft)
23.09.2013 15:00 19,6 C 19,4 C 75 % 1024,1 hPa 0,0 l/m 0,30 h 0,00 h 1,3 UV-I 278 W/m 0,0 km/h (0 Bft)
23.09.2013 16:00 20,1 C 19,7 C 75 % 1023,4 hPa 0,0 l/m 0,50 h 0,00 h 0,7 UV-I 260 W/m 0,0 km/h (0 Bft)
23.09.2013 17:00 19,3 C 18,2 C 78 % 1022,9 hPa 0,0 l/m 0,00 h 0,00 h 0,0 UV-I 68 W/m 0,0 km/h (0 Bft)
23.09.2013 18:00 18,6 C 17,1 C 82 % 1022,6 hPa 0,0 l/m 0,00 h 0,00 h 0,0 UV-I 34 W/m 0,0 km/h (0 Bft)
23.09.2013 19:00 16,9 C 14,8 C 87 % 1022,2 hPa 0,0 l/m 0,00 h 0,00 h 0,0 UV-I 11 W/m 0,0 km/h (0 Bft)
23.09.2013 20:00 15,1 C 13,2 C 92 % 1022,1 hPa 0,0 l/m 0,00 h 0,00 h 0,0 UV-I 0 W/m 0,0 km/h (0 Bft)
23.09.2013 21:00 14,7 C 13,3 C 95 % 1021,9 hPa 0,0 l/m 0,00 h 0,00 h 0,0 UV-I 0 W/m 0,0 km/h (0 Bft)
23.09.2013 22:00 15,4 C 13,8 C 92 % 1021,6 hPa 0,0 l/m 0,00 h 0,00 h 0,0 UV-I 0 W/m 0,0 km/h (0 Bft)
23.09.2013 23:00 14,2 C 12,5 C 94 % 1021,1 hPa 0,0 l/m 0,00 h 0,00 h 0,0 UV-I 0 W/m 0,0 km/h (0 Bft)
24.09.2013 00:00 13,0 C 11,5 C 96 % 1020,8 hPa 0,0 l/m 0,00 h 0,00 h 0,0 UV-I 0 W/m 0,0 km/h (0 Bft)
24.09.2013 01:00 12,9 C 11,6 C 97 % 1020,2 hPa 0,0 l/m 0,00 h 0,00 h 0,0 UV-I 0 W/m 0,0 km/h (0 Bft)
24.09.2013 02:00 13,0 C 11,9 C 98 % 1020,0 hPa 0,0 l/m 0,00 h 0,00 h 0,0 UV-I 0 W/m 0,0 km/h (0 Bft)
24.09.2013 03:00 13,6 C 12,7 C 97 % 1019,6 hPa 0,0 l/m 0,00 h 0,00 h 0,0 UV-I 0 W/m 0,0 km/h (0 Bft)
24.09.2013 04:00 13,8 C 12,8 C 96 % 1019,1 hPa 0,0 l/m 0,00 h 0,00 h 0,0 UV-I 0 W/m 0,0 km/h (0 Bft)
24.09.2013 05:00 13,7 C 12,4 C 96 % 1018,7 hPa 0,0 l/m 0,00 h 0,00 h 0,0 UV-I 0 W/m 0,0 km/h (0 Bft)
24.09.2013 06:00 13,7 C 12,5 C 96 % 1018,3 hPa 0,0 l/m 0,00 h 0,00 h 0,0 UV-I 0 W/m 0,0 km/h (0 Bft)
24.09.2013 07:00 13,7 C 12,8 C 95 % 1018,1 hPa 0,0 l/m 0,00 h 0,00 h 0,0 UV-I 9 W/m 0,0 km/h (0 Bft)
24.09.2013 08:00 14,0 C 13,2 C 95 % 1018,0 hPa 0,0 l/m 0,00 h 0,00 h 0,0 UV-I 38 W/m 0,0 km/h (0 Bft)
24.09.2013 09:00 14,8 C 14,3 C 93 % 1017,8 hPa 0,0 l/m 0,00 h 0,00 h 0,0 UV-I 100 W/m 0,0 km/h (0 Bft)
24.09.2013 10:00 16,0 C 15,9 C 89 % 1017,7 hPa 0,0 l/m 0,17 h 0,00 h 0,7 UV-I 216 W/m 0,0 km/h (0 Bft)
24.09.2013 11:00 17,8 C 17,8 C 81 % 1017,5 hPa 0,0 l/m 0,67 h 0,00 h 1,4 UV-I 339 W/m 0,0 km/h (0 Bft)
24.09.2013 12:00 19,0 C 19,0 C 74 % 1017,1 hPa 0,0 l/m 0,53 h 0,00 h 1,8 UV-I 350 W/m 0,0 km/h (0 Bft)
24.09.2013 13:00 19,9 C 19,2 C 69 % 1016,7 hPa 0,0 l/m 0,90 h 0,00 h 2,3 UV-I 535 W/m 0,0 km/h (0 Bft)
24.09.2013 14:00 20,5 C 20,0 C 67 % 1016,1 hPa 0,0 l/m 0,97 h 0,00 h 2,5 UV-I 577 W/m 0,0 km/h (0 Bft)
24.09.2013 15:00 20,7 C 19,7 C 66 % 1015,5 hPa 0,0 l/m 0,97 h 0,00 h 1,9 UV-I 473 W/m 0,0 km/h (0 Bft)
24.09.2013 16:00 20,3 C 19,1 C 67 % 1015,1 hPa 0,0 l/m 0,97 h 0,00 h 0,9 UV-I 343 W/m 0,0 km/h (0 Bft)
24.09.2013 17:00 20,0 C 18,6 C 67 % 1014,6 hPa 0,0 l/m 0,93 h 0,00 h 0,5 UV-I 212 W/m 0,0 km/h (0 Bft)
24.09.2013 18:00 19,2 C 17,5 C 71 % 1014,2 hPa 0,0 l/m 0,30 h 0,00 h 0,0 UV-I 71 W/m 0,0 km/h (0 Bft)
24.09.2013 19:00 17,4 C 15,3 C 79 % 1014,2 hPa 0,0 l/m 0,00 h 0,00 h 0,0 UV-I 13 W/m 0,0 km/h (0 Bft)
24.09.2013 20:00 15,6 C 13,5 C 87 % 1014,3 hPa 0,0 l/m 0,00 h 0,00 h 0,0 UV-I 0 W/m 0,0 km/h (0 Bft)
24.09.2013 21:00 14,8 C 12,7 C 91 % 1014,3 hPa 0,0 l/m 0,00 h 0,00 h 0,0 UV-I 0 W/m 0,0 km/h (0 Bft)
24.09.2013 22:00 13,9 C 12,0 C 94 % 1014,2 hPa 0,0 l/m 0,00 h 0,00 h 0,0 UV-I 0 W/m 0,0 km/h (0 Bft)
24.09.2013 23:00 13,1 C 11,5 C 96 % 1014,2 hPa 0,0 l/m 0,00 h 0,00 h 0,0 UV-I 0 W/m 0,0 km/h (0 Bft)
25.09.2013 00:00 12,8 C 11,1 C 97 % 1014,0 hPa 0,0 l/m 0,00 h 0,00 h 0,0 UV-I 0 W/m 0,0 km/h (0 Bft)
25.09.2013 01:00 12,6 C 10,7 C 97 % 1013,8 hPa 0,0 l/m 0,00 h 0,00 h 0,0 UV-I 0 W/m 0,0 km/h (0 Bft)
25.09.2013 02:00 11,5 C 10,0 C 97 % 1013,5 hPa 0,0 l/m 0,00 h 0,00 h 0,0 UV-I 0 W/m 0,0 km/h (0 Bft)
25.09.2013 03:00 10,9 C 9,4 C 98 % 1012,7 hPa 0,0 l/m 0,00 h 0,00 h 0,0 UV-I 0 W/m 0,0 km/h (0 Bft)
25.09.2013 04:00 10,9 C 9,4 C 98 % 1012,0 hPa 0,0 l/m 0,00 h 0,00 h 0,0 UV-I 0 W/m 0,0 km/h (0 Bft)
25.09.2013 05:00 10,6 C 9,0 C 98 % 1011,5 hPa 0,0 l/m 0,00 h 0,00 h 0,0 UV-I 0 W/m 0,0 km/h (0 Bft)
25.09.2013 06:00 10,5 C 9,2 C 98 % 1011,2 hPa 0,0 l/m 0,00 h 0,00 h 0,0 UV-I 0 W/m 0,0 km/h (0 Bft)
25.09.2013 07:00 10,1 C 8,9 C 98 % 1011,2 hPa 0,0 l/m 0,00 h 0,00 h 0,0 UV-I 14 W/m 0,0 km/h (0 Bft)
25.09.2013 08:00 10,7 C 10,1 C 99 % 1011,4 hPa 0,0 l/m 0,17 h 0,00 h 0,0 UV-I 67 W/m 0,0 km/h (0 Bft)
25.09.2013 09:00 12,5 C 11,9 C 99 % 1011,2 hPa 0,0 l/m 0,57 h 0,00 h 0,0 UV-I 182 W/m 0,0 km/h (0 Bft)
25.09.2013 10:00 14,7 C 14,1 C 93 % 1011,1 hPa 0,0 l/m 0,90 h 0,07 h 0,8 UV-I 335 W/m 0,8 km/h (0 Bft)
25.09.2013 11:00 16,6 C 16,3 C 86 % 1010,9 hPa 0,0 l/m 0,80 h 0,00 h 1,4 UV-I 421 W/m 0,0 km/h (0 Bft)
25.09.2013 12:00 17,5 C 17,6 C 84 % 1010,7 hPa 0,0 l/m 0,50 h 0,00 h 1,5 UV-I 365 W/m 0,1 km/h (0 Bft)
25.09.2013 13:00 18,5 C 18,6 C 81 % 1010,4 hPa 0,0 l/m 0,47 h 0,00 h 1,6 UV-I 391 W/m 0,0 km/h (0 Bft)
25.09.2013 14:00 18,4 C 18,4 C 83 % 1009,8 hPa 0,0 l/m 0,13 h 0,00 h 1,1 UV-I 258 W/m 0,1 km/h (0 Bft)
25.09.2013 15:00 18,9 C 18,5 C 82 % 1009,8 hPa 0,0 l/m 0,27 h 0,00 h 0,9 UV-I 249 W/m 0,4 km/h (0 Bft)
25.09.2013 16:00 19,1 C 18,5 C 81 % 1009,7 hPa 0,0 l/m 0,53 h 0,00 h 0,7 UV-I 238 W/m 0,7 km/h (0 Bft)
25.09.2013 17:00 18,8 C 18,0 C 81 % 1009,7 hPa 0,0 l/m 0,27 h 0,00 h 0,0 UV-I 140 W/m 0,4 km/h (0 Bft)
25.09.2013 18:00 17,6 C 16,3 C 85 % 1009,6 hPa 0,0 l/m 0,00 h 0,00 h 0,0 UV-I 43 W/m 0,0 km/h (0 Bft)
25.09.2013 19:00 16,8 C 15,2 C 88 % 1010,0 hPa 0,0 l/m 0,00 h 0,00 h 0,0 UV-I 8 W/m 0,0 km/h (0 Bft)
25.09.2013 20:00 15,3 C 13,3 C 92 % 1010,2 hPa 0,0 l/m 0,00 h 0,00 h 0,0 UV-I 0 W/m 0,0 km/h (0 Bft)
25.09.2013 21:00 13,9 C 12,3 C 96 % 1010,4 hPa 0,0 l/m 0,00 h 0,00 h 0,0 UV-I 0 W/m 0,0 km/h (0 Bft)
25.09.2013 22:00 13,2 C 11,7 C 97 % 1010,4 hPa 0,0 l/m 0,00 h 0,00 h 0,0 UV-I 0 W/m 0,0 km/h (0 Bft)
25.09.2013 23:00 13,1 C 11,8 C 98 % 1010,4 hPa 0,0 l/m 0,00 h 0,00 h 0,0 UV-I 0 W/m 0,0 km/h (0 Bft)
26.09.2013 00:00 13,3 C 12,1 C 98 % 1010,3 hPa 0,0 l/m 0,00 h 0,07 h 0,0 UV-I 0 W/m 0,0 km/h (0 Bft)
26.09.2013 01:00 13,3 C 11,8 C 98 % 1010,3 hPa 0,0 l/m 0,00 h 0,00 h 0,0 UV-I 0 W/m 0,0 km/h (0 Bft)
26.09.2013 02:00 13,3 C 12,2 C 98 % 1010,6 hPa 0,0 l/m 0,00 h 0,00 h 0,0 UV-I 0 W/m 0,0 km/h (0 Bft)
26.09.2013 03:00 13,0 C 11,6 C 98 % 1010,7 hPa 0,0 l/m 0,00 h 0,00 h 0,0 UV-I 0 W/m 0,0 km/h (0 Bft)
26.09.2013 04:00 12,3 C 10,8 C 98 % 1010,6 hPa 0,0 l/m 0,00 h 0,00 h 0,0 UV-I 0 W/m 0,0 km/h (0 Bft)
26.09.2013 05:00 11,9 C 10,5 C 98 % 1011,1 hPa 0,0 l/m 0,00 h 0,00 h 0,0 UV-I 0 W/m 0,0 km/h (0 Bft)
26.09.2013 06:00 11,7 C 10,4 C 99 % 1011,5 hPa 0,0 l/m 0,00 h 0,00 h 0,0 UV-I 0 W/m 0,0 km/h (0 Bft)
26.09.2013 07:00 12,2 C 11,2 C 99 % 1012,0 hPa 0,0 l/m 0,00 h 0,00 h 0,0 UV-I 6 W/m 0,0 km/h (0 Bft)
26.09.2013 08:00 12,9 C 12,1 C 99 % 1012,8 hPa 0,0 l/m 0,00 h 0,00 h 0,0 UV-I 16 W/m 0,0 km/h (0 Bft)
26.09.2013 09:00 13,7 C 13,2 C 99 % 1013,5 hPa 0,0 l/m 0,00 h 0,00 h 0,0 UV-I 46 W/m 0,0 km/h (0 Bft)
26.09.2013 10:00 14,5 C 14,3 C 96 % 1014,2 hPa 0,0 l/m 0,00 h 0,00 h 0,0 UV-I 130 W/m 0,8 km/h (0 Bft)
26.09.2013 11:00 15,9 C 15,3 C 83 % 1014,8 hPa 0,0 l/m 0,73 h 0,00 h 1,6 UV-I 444 W/m 9,3 km/h (2 Bft)
26.09.2013 12:00 16,3 C 15,6 C 74 % 1015,3 hPa 0,0 l/m 0,70 h 0,00 h 1,6 UV-I 467 W/m 15,0 km/h (3 Bft)
26.09.2013 13:00 17,0 C 16,4 C 70 % 1015,5 hPa 0,0 l/m 0,67 h 0,00 h 1,7 UV-I 505 W/m 10,3 km/h (2 Bft)
26.09.2013 14:00 16,8 C 16,1 C 71 % 1015,7 hPa 0,0 l/m 0,50 h 0,00 h 1,6 UV-I 419 W/m 13,2 km/h (3 Bft)
26.09.2013 15:00 16,6 C 15,9 C 71 % 1016,0 hPa 0,0 l/m 0,43 h 0,00 h 1,2 UV-I 336 W/m 12,3 km/h (3 Bft)
26.09.2013 16:00 16,3 C 15,5 C 69 % 1016,2 hPa 0,0 l/m 0,50 h 0,00 h 0,8 UV-I 277 W/m 15,2 km/h (3 Bft)
26.09.2013 17:00 15,7 C 14,6 C 69 % 1016,3 hPa 0,0 l/m 0,60 h 0,00 h 0,0 UV-I 171 W/m 10,0 km/h (2 Bft)
26.09.2013 18:00 14,1 C 12,9 C 82 % 1016,7 hPa 0,0 l/m 0,00 h 0,00 h 0,0 UV-I 46 W/m 11,5 km/h (2 Bft)
26.09.2013 19:00 12,7 C 11,4 C 87 % 1017,0 hPa 0,0 l/m 0,00 h 0,00 h 0,0 UV-I 11 W/m 5,1 km/h (1 Bft)
26.09.2013 20:00 11,5 C 10,1 C 90 % 1017,5 hPa 0,0 l/m 0,00 h 0,00 h 0,0 UV-I 0 W/m 0,3 km/h (0 Bft)
26.09.2013 21:00 10,4 C 8,9 C 93 % 1017,8 hPa 0,0 l/m 0,00 h 0,00 h 0,0 UV-I 0 W/m 0,0 km/h (0 Bft)
26.09.2013 22:00 9,5 C 7,9 C 94 % 1018,0 hPa 0,0 l/m 0,00 h 0,00 h 0,0 UV-I 0 W/m 0,0 km/h (0 Bft)
26.09.2013 23:00 8,5 C 7,0 C 96 % 1018,0 hPa 0,0 l/m 0,00 h 0,00 h 0,0 UV-I 0 W/m 0,0 km/h (0 Bft)
27.09.2013 00:00 7,9 C 6,5 C 97 % 1017,8 hPa 0,0 l/m 0,00 h 0,00 h 0,0 UV-I 0 W/m 0,0 km/h (0 Bft)
27.09.2013 01:00 7,2 C 5,7 C 97 % 1017,8 hPa 0,0 l/m 0,00 h 0,00 h 0,0 UV-I 0 W/m 0,0 km/h (0 Bft)
27.09.2013 02:00 6,7 C 5,2 C 97 % 1018,0 hPa 0,0 l/m 0,00 h 0,00 h 0,0 UV-I 0 W/m 0,0 km/h (0 Bft)
27.09.2013 03:00 6,1 C 4,7 C 98 % 1017,8 hPa 0,0 l/m 0,00 h 0,00 h 0,0 UV-I 0 W/m 0,0 km/h (0 Bft)
27.09.2013 04:00 5,6 C 4,3 C 98 % 1017,7 hPa 0,0 l/m 0,00 h 0,00 h 0,0 UV-I 0 W/m 0,0 km/h (0 Bft)
27.09.2013 05:00 5,4 C 4,2 C 98 % 1017,6 hPa 0,0 l/m 0,00 h 0,00 h 0,0 UV-I 0 W/m 0,0 km/h (0 Bft)
27.09.2013 06:00 6,0 C 5,2 C 98 % 1017,4 hPa 0,0 l/m 0,00 h 0,00 h 0,0 UV-I 0 W/m 0,0 km/h (0 Bft)
27.09.2013 07:00 6,3 C 5,6 C 98 % 1017,3 hPa 0,0 l/m 0,00 h 0,00 h 0,0 UV-I 12 W/m 0,0 km/h (0 Bft)
27.09.2013 08:00 6,7 C 5,9 C 98 % 1017,7 hPa 0,0 l/m 0,00 h 0,00 h 0,0 UV-I 54 W/m 0,0 km/h (0 Bft)
27.09.2013 09:00 9,3 C 8,3 C 98 % 1017,8 hPa 0,0 l/m 0,90 h 0,00 h 0,0 UV-I 216 W/m 0,4 km/h (0 Bft)
27.09.2013 10:00 12,1 C 11,0 C 89 % 1017,9 hPa 0,0 l/m 0,90 h 0,00 h 0,8 UV-I 341 W/m 3,2 km/h (1 Bft)
27.09.2013 11:00 14,0 C 12,9 C 79 % 1017,7 hPa 0,0 l/m 0,97 h 0,00 h 1,4 UV-I 438 W/m 7,3 km/h (2 Bft)
27.09.2013 12:00 15,4 C 14,3 C 74 % 1017,4 hPa 0,0 l/m 0,97 h 0,00 h 1,7 UV-I 524 W/m 7,0 km/h (2 Bft)
27.09.2013 13:00 16,4 C 15,2 C 70 % 1017,1 hPa 0,0 l/m 0,93 h 0,00 h 1,8 UV-I 545 W/m 7,4 km/h (2 Bft)
27.09.2013 14:00 17,2 C 15,8 C 67 % 1016,7 hPa 0,0 l/m 0,97 h 0,00 h 2,1 UV-I 543 W/m 6,1 km/h (2 Bft)
27.09.2013 15:00 17,4 C 16,0 C 65 % 1016,3 hPa 0,0 l/m 0,97 h 0,00 h 1,5 UV-I 466 W/m 6,6 km/h (2 Bft)
27.09.2013 16:00 17,4 C 15,9 C 64 % 1016,1 hPa 0,0 l/m 0,97 h 0,00 h 0,7 UV-I 341 W/m 5,0 km/h (1 Bft)
27.09.2013 17:00 17,1 C 15,2 C 65 % 1015,8 hPa 0,0 l/m 0,97 h 0,00 h 0,0 UV-I 207 W/m 3,3 km/h (1 Bft)
27.09.2013 18:00 15,7 C 13,6 C 70 % 1015,5 hPa 0,0 l/m 0,10 h 0,00 h 0,0 UV-I 43 W/m 2,1 km/h (1 Bft)
27.09.2013 19:00 13,8 C 11,6 C 76 % 1015,6 hPa 0,0 l/m 0,00 h 0,00 h 0,0 UV-I 9 W/m 0,2 km/h (0 Bft)
27.09.2013 20:00 12,3 C 9,8 C 79 % 1015,7 hPa 0,0 l/m 0,00 h 0,00 h 0,0 UV-I 0 W/m 0,0 km/h (0 Bft)
27.09.2013 21:00 11,4 C 9,0 C 79 % 1015,7 hPa 0,0 l/m 0,00 h 0,00 h 0,0 UV-I 0 W/m 0,1 km/h (0 Bft)
27.09.2013 22:00 10,4 C 8,3 C 80 % 1015,6 hPa 0,0 l/m 0,00 h 0,00 h 0,0 UV-I 0 W/m 0,0 km/h (0 Bft)
27.09.2013 23:00 9,9 C 8,1 C 82 % 1015,5 hPa 0,0 l/m 0,00 h 0,00 h 0,0 UV-I 0 W/m 0,0 km/h (0 Bft)
28.09.2013 00:00 8,4 C 6,4 C 89 % 1015,5 hPa 0,0 l/m 0,00 h 0,00 h 0,0 UV-I 0 W/m 0,0 km/h (0 Bft)
28.09.2013 01:00 7,8 C 5,9 C 91 % 1015,2 hPa 0,0 l/m 0,00 h 0,00 h 0,0 UV-I 0 W/m 0,0 km/h (0 Bft)
28.09.2013 02:00 6,9 C 5,1 C 93 % 1015,1 hPa 0,0 l/m 0,00 h 0,00 h 0,0 UV-I 0 W/m 0,0 km/h (0 Bft)
28.09.2013 03:00 6,2 C 4,4 C 94 % 1014,9 hPa 0,0 l/m 0,00 h 0,00 h 0,0 UV-I 0 W/m 0,0 km/h (0 Bft)
28.09.2013 04:00 5,6 C 4,1 C 95 % 1014,7 hPa 0,0 l/m 0,00 h 0,00 h 0,0 UV-I 0 W/m 0,0 km/h (0 Bft)
28.09.2013 05:00 5,0 C 3,5 C 96 % 1014,3 hPa 0,0 l/m 0,00 h 0,00 h 0,0 UV-I 0 W/m 0,0 km/h (0 Bft)
28.09.2013 06:00 5,0 C 3,4 C 96 % 1013,9 hPa 0,0 l/m 0,00 h 0,00 h 0,0 UV-I 0 W/m 0,0 km/h (0 Bft)
28.09.2013 07:00 4,5 C 3,3 C 96 % 1013,7 hPa 0,0 l/m 0,00 h 0,00 h 0,0 UV-I 10 W/m 0,0 km/h (0 Bft)
28.09.2013 08:00 5,3 C 4,0 C 96 % 1013,7 hPa 0,0 l/m 0,50 h 0,00 h 0,0 UV-I 75 W/m 0,0 km/h (0 Bft)
28.09.2013 09:00 8,2 C 6,9 C 92 % 1013,7 hPa 0,0 l/m 0,97 h 0,00 h 0,0 UV-I 229 W/m 0,2 km/h (0 Bft)
28.09.2013 10:00 11,8 C 10,1 C 82 % 1013,8 hPa 0,0 l/m 0,97 h 0,00 h 0,8 UV-I 365 W/m 0,7 km/h (0 Bft)
28.09.2013 11:00 14,7 C 13,1 C 72 % 1013,5 hPa 0,0 l/m 0,80 h 0,00 h 1,5 UV-I 435 W/m 1,2 km/h (1 Bft)
28.09.2013 12:00 16,9 C 15,3 C 66 % 1013,1 hPa 0,0 l/m 0,97 h 0,00 h 1,7 UV-I 541 W/m 2,1 km/h (1 Bft)
28.09.2013 13:00 18,6 C 16,7 C 61 % 1012,5 hPa 0,0 l/m 0,97 h 0,00 h 1,9 UV-I 561 W/m 10,7 km/h (2 Bft)
28.09.2013 14:00 19,3 C 17,3 C 59 % 1012,1 hPa 0,0 l/m 0,93 h 0,00 h 2,0 UV-I 509 W/m 10,7 km/h (2 Bft)
28.09.2013 15:00 18,9 C 17,6 C 62 % 1011,5 hPa 0,0 l/m 0,77 h 0,00 h 1,2 UV-I 331 W/m 7,7 km/h (2 Bft)
28.09.2013 16:00 18,3 C 17,3 C 63 % 1011,2 hPa 0,0 l/m 0,63 h 0,00 h 0,6 UV-I 265 W/m 11,5 km/h (2 Bft)
28.09.2013 17:00 17,4 C 15,8 C 65 % 1010,6 hPa 0,0 l/m 0,37 h 0,00 h 0,0 UV-I 150 W/m 9,1 km/h (2 Bft)
28.09.2013 18:00 16,2 C 14,4 C 67 % 1010,5 hPa 0,0 l/m 0,00 h 0,00 h 0,0 UV-I 39 W/m 5,5 km/h (1 Bft)
28.09.2013 19:00 15,2 C 13,1 C 68 % 1010,8 hPa 0,0 l/m 0,00 h 0,00 h 0,0 UV-I 10 W/m 1,8 km/h (1 Bft)
28.09.2013 20:00 13,5 C 11,6 C 72 % 1011,0 hPa 0,0 l/m 0,00 h 0,00 h 0,0 UV-I 0 W/m 0,5 km/h (0 Bft)
28.09.2013 21:00 12,5 C 10,7 C 75 % 1011,0 hPa 0,0 l/m 0,00 h 0,00 h 0,0 UV-I 0 W/m 0,4 km/h (0 Bft)
28.09.2013 22:00 11,8 C 10,0 C 77 % 1011,1 hPa 0,0 l/m 0,00 h 0,00 h 0,0 UV-I 0 W/m 1,3 km/h (1 Bft)
28.09.2013 23:00 11,1 C 9,5 C 78 % 1011,0 hPa 0,0 l/m 0,00 h 0,00 h 0,0 UV-I 0 W/m 0,9 km/h (0 Bft)
29.09.2013 00:00 10,5 C 8,9 C 78 % 1010,7 hPa 0,0 l/m 0,00 h 0,00 h 0,0 UV-I 0 W/m 1,3 km/h (1 Bft)
29.09.2013 01:00 9,8 C 8,3 C 80 % 1010,6 hPa 0,0 l/m 0,00 h 0,00 h 0,0 UV-I 0 W/m 0,8 km/h (0 Bft)
29.09.2013 02:00 9,2 C 7,8 C 83 % 1010,5 hPa 0,0 l/m 0,00 h 0,00 h 0,0 UV-I 0 W/m 1,2 km/h (1 Bft)
29.09.2013 03:00 8,8 C 7,4 C 85 % 1010,0 hPa 0,0 l/m 0,00 h 0,00 h 0,0 UV-I 0 W/m 1,6 km/h (1 Bft)
29.09.2013 04:00 8,4 C 7,2 C 86 % 1009,6 hPa 0,0 l/m 0,00 h 0,00 h 0,0 UV-I 0 W/m 0,4 km/h (0 Bft)
29.09.2013 05:00 8,2 C 6,9 C 88 % 1009,3 hPa 0,0 l/m 0,00 h 0,00 h 0,0 UV-I 0 W/m 1,2 km/h (1 Bft)
29.09.2013 06:00 7,9 C 6,7 C 88 % 1009,1 hPa 0,0 l/m 0,00 h 0,00 h 0,0 UV-I 0 W/m 1,1 km/h (0 Bft)
29.09.2013 07:00 7,7 C 6,7 C 88 % 1009,0 hPa 0,0 l/m 0,00 h 0,00 h 0,0 UV-I 10 W/m 1,5 km/h (1 Bft)
29.09.2013 08:00 8,2 C 7,2 C 87 % 1009,2 hPa 0,0 l/m 0,40 h 0,00 h 0,0 UV-I 72 W/m 5,9 km/h (2 Bft)
29.09.2013 09:00 9,8 C 8,7 C 83 % 1009,4 hPa 0,0 l/m 0,97 h 0,00 h 0,0 UV-I 233 W/m 6,6 km/h (2 Bft)
29.09.2013 10:00 12,1 C 11,0 C 76 % 1009,4 hPa 0,0 l/m 0,97 h 0,00 h 0,7 UV-I 348 W/m 11,6 km/h (2 Bft)
29.09.2013 11:00 14,5 C 13,4 C 71 % 1009,2 hPa 0,0 l/m 0,97 h 0,00 h 1,4 UV-I 455 W/m 7,2 km/h (2 Bft)
29.09.2013 12:00 16,7 C 15,4 C 66 % 1008,9 hPa 0,0 l/m 0,97 h 0,00 h 1,6 UV-I 525 W/m 7,3 km/h (2 Bft)
29.09.2013 13:00 18,2 C 16,7 C 63 % 1008,6 hPa 0,0 l/m 0,97 h 0,00 h 1,7 UV-I 545 W/m 10,1 km/h (2 Bft)
29.09.2013 14:00 19,7 C 17,6 C 53 % 1008,3 hPa 0,0 l/m 0,97 h 0,00 h 1,9 UV-I 521 W/m 15,2 km/h (3 Bft)
29.09.2013 15:00 20,4 C 18,3 C 49 % 1008,0 hPa 0,0 l/m 0,97 h 0,00 h 1,4 UV-I 450 W/m 13,5 km/h (3 Bft)
29.09.2013 16:00 20,5 C 18,3 C 48 % 1007,9 hPa 0,0 l/m 0,97 h 0,00 h 0,7 UV-I 344 W/m 12,9 km/h (3 Bft)
29.09.2013 17:00 19,8 C 17,4 C 50 % 1007,8 hPa 0,0 l/m 0,97 h 0,00 h 0,0 UV-I 210 W/m 10,1 km/h (2 Bft)
29.09.2013 18:00 18,2 C 15,6 C 55 % 1008,0 hPa 0,0 l/m 0,30 h 0,00 h 0,0 UV-I 48 W/m 6,3 km/h (2 Bft)
29.09.2013 19:00 15,4 C 12,9 C 65 % 1008,5 hPa 0,0 l/m 0,00 h 0,00 h 0,0 UV-I 6 W/m 0,4 km/h (0 Bft)
29.09.2013 20:00 13,8 C 11,7 C 70 % 1008,9 hPa 0,0 l/m 0,00 h 0,00 h 0,0 UV-I 0 W/m 1,7 km/h (1 Bft)
29.09.2013 21:00 12,7 C 11,1 C 73 % 1009,5 hPa 0,0 l/m 0,00 h 0,00 h 0,0 UV-I 0 W/m 1,0 km/h (0 Bft)
29.09.2013 22:00 11,7 C 10,1 C 75 % 1009,9 hPa 0,0 l/m 0,00 h 0,00 h 0,0 UV-I 0 W/m 0,7 km/h (0 Bft)
29.09.2013 23:00 10,5 C 8,9 C 79 % 1010,0 hPa 0,0 l/m 0,00 h 0,00 h 0,0 UV-I 0 W/m 0,4 km/h (0 Bft)
Min-Datum _ 28.09.13 28.09.13 29.09.13 29.09.13 - - - - - 23.09.13
_ Min-Zeit 07:28 05:24 16:38 17:32 - - - - - 00:00
Minimum _ 4,4 C 3,3 C 46 % 1007,7 hPa - - - - - 0,0 km/h (0 Bft)
Max-Datum _ 24.09.13 23.09.13 27.09.13 23.09.13 23.09.13 23.09.13 25.09.13 24.09.13 26.09.13 26.09.13
_ Max-Zeit 15:50 14:46 00:10 00:28 00:00 13:10 10:14 14:10 13:54 12:38
Maximum _ 21,0 C 20,6 C 100 % 1027,3 hPa 0,0 l/m 0,03 h 0,03 h 2,9 UV-I 772 W/m 25,7 km/h
NW (4 Bft)
Durchschnitt _ 13,7 C 12,4 C 85 % 1015,1 hPa #0,0 l/m #42:22 h #8 min. 1,3 UV-I 241 W/m 2,0 km/h (1 Bft)
© 2013 W. Hausmann